createdAt,value
2022-07-27T00:00:19.777Z,99.99
2022-07-27T00:01:20.212Z,99.99
2022-07-27T00:02:20.023Z,99.99
2022-07-27T00:03:20.014Z,99.99
2022-07-27T00:04:20.593Z,99.99
2022-07-27T00:05:19.750Z,99.99
2022-07-27T00:06:19.989Z,99.99
2022-07-27T00:07:19.730Z,99.99
2022-07-27T00:08:19.978Z,99.99
2022-07-27T00:09:19.973Z,99.99
2022-07-27T00:10:19.972Z,99.99
2022-07-27T00:11:19.702Z,99.99
2022-07-27T00:12:19.952Z,99.99
2022-07-27T00:13:19.945Z,99.99
2022-07-27T00:14:19.680Z,99.99
2022-07-27T00:15:19.982Z,99.99
2022-07-27T00:16:19.929Z,99.99
2022-07-27T00:17:19.919Z,99.99
2022-07-27T00:18:19.654Z,99.99
2022-07-27T00:19:19.911Z,99.99
2022-07-27T00:20:20.140Z,99.99
2022-07-27T00:21:19.633Z,99.99
2022-07-27T00:22:19.888Z,99.99
2022-07-27T00:23:19.897Z,99.99
2022-07-27T00:24:19.873Z,99.99
2022-07-27T00:25:19.866Z,99.99
2022-07-27T00:26:19.864Z,99.99
2022-07-27T00:27:19.597Z,99.99
2022-07-27T00:28:19.848Z,99.99
2022-07-27T00:29:19.840Z,99.99
2022-07-27T00:30:19.581Z,99.99
2022-07-27T00:31:20.039Z,99.99
2022-07-27T00:32:19.823Z,99.99
2022-07-27T00:33:20.136Z,99.99
2022-07-27T00:34:19.807Z,99.99
2022-07-27T00:35:19.823Z,99.99
2022-07-27T00:36:19.792Z,99.99
2022-07-27T00:37:19.526Z,99.99
2022-07-27T00:38:19.536Z,99.99
2022-07-27T00:39:19.516Z,99.99
2022-07-27T00:40:20.278Z,99.99
2022-07-27T00:41:19.500Z,99.99
2022-07-27T00:42:19.500Z,99.99
2022-07-27T00:43:19.745Z,99.99
2022-07-27T00:44:19.739Z,99.99
2022-07-27T00:45:19.729Z,99.99
2022-07-27T00:46:19.813Z,99.99
2022-07-27T00:47:19.713Z,99.99
2022-07-27T00:48:19.714Z,99.99
2022-07-27T00:49:20.041Z,99.99
2022-07-27T00:50:19.731Z,99.99
2022-07-27T00:51:19.696Z,99.99
2022-07-27T00:52:19.688Z,99.99
2022-07-27T00:53:19.801Z,99.99
2022-07-27T00:54:19.675Z,99.99
2022-07-27T00:55:19.406Z,99.99
2022-07-27T00:56:19.658Z,99.99
2022-07-27T00:57:19.659Z,99.99
2022-07-27T00:58:19.643Z,99.99
2022-07-27T00:59:19.636Z,99.99
2022-07-27T01:00:19.645Z,99.99
2022-07-27T01:01:19.656Z,99.99
2022-07-27T01:02:22.848Z,99.99
2022-07-27T01:03:19.758Z,99.99
2022-07-27T01:04:19.728Z,99.99
2022-07-27T01:05:20.668Z,99.99
2022-07-27T01:06:29.647Z,99.99
2022-07-27T01:07:19.587Z,99.99
2022-07-27T01:08:19.587Z,99.99
2022-07-27T01:09:19.573Z,99.99
2022-07-27T01:10:19.566Z,99.99
2022-07-27T01:11:19.303Z,99.99
2022-07-27T01:12:19.549Z,99.99
2022-07-27T01:13:19.544Z,99.99
2022-07-27T01:14:19.541Z,99.99
2022-07-27T01:15:19.539Z,99.99
2022-07-27T01:16:19.586Z,99.99
2022-07-27T01:17:19.519Z,99.99
2022-07-27T01:18:19.551Z,99.99
2022-07-27T01:19:19.506Z,99.99
2022-07-27T01:20:19.496Z,99.99
2022-07-27T01:21:19.236Z,99.99
2022-07-27T01:22:19.488Z,99.99
2022-07-27T01:23:19.482Z,99.99
2022-07-27T01:24:19.474Z,99.99
2022-07-27T01:25:19.479Z,99.99
2022-07-27T01:26:19.208Z,99.99
2022-07-27T01:27:19.215Z,99.99
2022-07-27T01:28:19.447Z,99.99
2022-07-27T01:29:19.441Z,99.99
2022-07-27T01:30:19.435Z,99.99
2022-07-27T01:31:19.319Z,99.99
2022-07-27T01:32:19.769Z,99.99
2022-07-27T01:33:19.157Z,99.99
2022-07-27T01:34:19.405Z,99.99
2022-07-27T01:35:19.405Z,99.99
2022-07-27T01:36:19.395Z,99.99
2022-07-27T01:37:19.394Z,99.99
2022-07-27T01:38:19.124Z,99.99
2022-07-27T01:39:19.375Z,99.99
2022-07-27T01:40:19.364Z,99.99
2022-07-27T01:41:19.358Z,99.99
2022-07-27T01:42:19.351Z,99.99
2022-07-27T01:43:19.349Z,99.99
2022-07-27T01:44:19.090Z,99.99
2022-07-27T01:45:19.141Z,99.99
2022-07-27T01:46:19.497Z,99.99
2022-07-27T01:47:19.315Z,99.99
2022-07-27T01:48:19.309Z,99.99
2022-07-27T01:49:19.917Z,99.99
2022-07-27T01:50:19.300Z,99.99
2022-07-27T01:51:19.035Z,99.99
2022-07-27T01:52:19.289Z,99.99
2022-07-27T01:53:19.021Z,99.99
2022-07-27T01:54:19.014Z,99.99
2022-07-27T01:55:19.007Z,99.99
2022-07-27T01:56:19.261Z,99.99
2022-07-27T01:57:19.252Z,99.99
2022-07-27T01:58:18.985Z,99.99
2022-07-27T01:59:19.724Z,99.99
2022-07-27T02:00:19.270Z,99.99
2022-07-27T02:01:19.329Z,99.99
2022-07-27T02:02:18.965Z,99.99
2022-07-27T02:03:19.209Z,99.99
2022-07-27T02:04:19.237Z,99.99
2022-07-27T02:05:19.395Z,99.99
2022-07-27T02:06:19.249Z,99.99
2022-07-27T02:07:18.931Z,99.99
2022-07-27T02:08:18.927Z,99.99
2022-07-27T02:09:19.172Z,99.99
2022-07-27T02:10:19.170Z,99.99
2022-07-27T02:11:19.160Z,99.99
2022-07-27T02:12:18.902Z,99.99
2022-07-27T02:13:25.215Z,99.99
2022-07-27T02:14:19.154Z,99.99
2022-07-27T02:15:19.128Z,99.99
2022-07-27T02:16:19.944Z,99.99
2022-07-27T02:17:21.264Z,99.99
2022-07-27T02:18:36.481Z,99.99
2022-07-27T02:19:20.624Z,99.99
2022-07-27T02:20:19.097Z,99.99
2022-07-27T02:21:18.847Z,99.99
2022-07-27T02:22:19.086Z,99.99
2022-07-27T02:23:19.078Z,99.99
2022-07-27T02:24:18.814Z,99.99
2022-07-27T02:25:19.062Z,99.99
2022-07-27T02:26:19.060Z,99.99
2022-07-27T02:27:19.051Z,99.99
2022-07-27T02:28:18.789Z,99.99
2022-07-27T02:29:19.039Z,99.99
2022-07-27T02:30:20.375Z,99.99
2022-07-27T02:31:18.765Z,99.99
2022-07-27T02:32:19.021Z,99.99
2022-07-27T02:33:19.090Z,99.99
2022-07-27T02:34:19.005Z,99.99
2022-07-27T02:35:22.435Z,99.99
2022-07-27T02:36:18.993Z,99.99
2022-07-27T02:37:19.031Z,99.99
2022-07-27T02:38:18.723Z,99.99
2022-07-27T02:39:18.970Z,99.99
2022-07-27T02:40:18.971Z,99.99
2022-07-27T02:41:18.953Z,99.99
2022-07-27T02:42:18.697Z,99.99
2022-07-27T02:43:18.949Z,99.99
2022-07-27T02:44:18.945Z,99.99
2022-07-27T02:45:18.932Z,99.99
2022-07-27T02:46:19.086Z,99.99
2022-07-27T02:47:18.664Z,99.99
2022-07-27T02:48:18.921Z,99.99
2022-07-27T02:49:21.485Z,99.99
2022-07-27T02:50:18.899Z,99.99
2022-07-27T02:51:18.889Z,99.99
2022-07-27T02:52:18.886Z,99.99
2022-07-27T02:53:18.650Z,99.99
2022-07-27T02:54:18.868Z,99.99
2022-07-27T02:55:18.865Z,99.99
2022-07-27T02:56:26.845Z,99.99
2022-07-27T02:57:18.853Z,99.99
2022-07-27T02:58:18.846Z,99.99
2022-07-27T02:59:18.842Z,99.99
2022-07-27T03:00:18.570Z,99.99
2022-07-27T03:01:19.057Z,99.99
2022-07-27T03:02:18.815Z,99.99
2022-07-27T03:03:18.807Z,99.99
2022-07-27T03:04:18.949Z,99.99
2022-07-27T03:05:18.796Z,99.99
2022-07-27T03:06:18.526Z,99.99
2022-07-27T03:07:18.775Z,99.99
2022-07-27T03:08:18.768Z,99.99
2022-07-27T03:09:18.507Z,99.99
2022-07-27T03:10:18.759Z,99.99
2022-07-27T03:11:18.756Z,99.99
2022-07-27T03:12:18.742Z,99.99
2022-07-27T03:13:18.740Z,99.99
2022-07-27T03:14:18.728Z,99.99
2022-07-27T03:15:18.466Z,99.99
2022-07-27T03:16:18.551Z,99.99
2022-07-27T03:17:18.713Z,99.99
2022-07-27T03:18:18.697Z,99.99
2022-07-27T03:19:18.694Z,99.99
2022-07-27T03:20:18.434Z,99.99
2022-07-27T03:21:18.995Z,99.99
2022-07-27T03:22:18.416Z,99.99
2022-07-27T03:23:18.678Z,99.99
2022-07-27T03:24:18.657Z,99.99
2022-07-27T03:25:18.671Z,99.99
2022-07-27T03:26:18.392Z,99.99
2022-07-27T03:27:18.384Z,99.99
2022-07-27T03:28:18.395Z,99.99
2022-07-27T03:29:18.652Z,99.99
2022-07-27T03:30:18.616Z,99.99
2022-07-27T03:31:18.803Z,99.99
2022-07-27T03:32:18.347Z,99.99
2022-07-27T03:50:11.281Z,99.99
2022-07-27T03:51:11.260Z,99.99
2022-07-27T03:52:17.762Z,99.99
2022-07-27T03:53:11.238Z,99.99
2022-07-27T03:54:11.017Z,99.99
2022-07-27T03:55:11.070Z,99.99
2022-07-27T03:56:11.219Z,99.99
2022-07-27T03:57:11.199Z,99.99
2022-07-27T03:58:11.305Z,99.99
2022-07-27T03:59:12.000Z,99.99
2022-07-27T04:00:11.177Z,99.99
2022-07-27T04:01:11.016Z,99.99
2022-07-27T04:02:11.024Z,99.99
2022-07-27T04:03:11.144Z,99.99
2022-07-27T04:04:11.143Z,99.99
2022-07-27T04:05:11.131Z,99.99
2022-07-27T04:06:10.867Z,99.99
2022-07-27T04:07:11.115Z,99.99
2022-07-27T04:08:11.111Z,99.99
2022-07-27T04:09:12.387Z,99.99
2022-07-27T04:10:11.088Z,99.99
2022-07-27T04:11:13.847Z,99.99
2022-07-27T04:12:11.112Z,99.99
2022-07-27T04:13:11.064Z,99.99
2022-07-27T04:14:13.054Z,99.99
2022-07-27T04:15:10.801Z,99.99
2022-07-27T04:16:11.474Z,99.99
2022-07-27T04:17:11.210Z,99.99
2022-07-27T04:18:10.769Z,99.99
2022-07-27T04:19:11.624Z,99.99
2022-07-27T04:20:10.755Z,99.99
2022-07-27T04:21:10.746Z,99.99
2022-07-27T04:22:10.994Z,99.99
2022-07-27T04:23:10.986Z,99.99
2022-07-27T04:24:10.977Z,99.99
2022-07-27T04:25:10.714Z,99.99
2022-07-27T04:26:11.444Z,99.99
2022-07-27T04:27:10.962Z,99.99
2022-07-27T04:28:10.699Z,99.99
2022-07-27T04:29:11.526Z,99.99
2022-07-27T04:30:12.296Z,99.99
2022-07-27T04:31:11.145Z,99.99
2022-07-27T04:32:10.922Z,99.99
2022-07-27T04:33:10.910Z,99.99
2022-07-27T04:34:10.646Z,99.99
2022-07-27T04:35:10.895Z,99.99
2022-07-27T04:36:10.889Z,99.99
2022-07-27T04:37:10.624Z,99.99
2022-07-27T04:38:10.625Z,99.99
2022-07-27T04:39:11.291Z,99.99
2022-07-27T04:40:10.619Z,99.99
2022-07-27T04:41:10.851Z,99.99
2022-07-27T04:42:10.855Z,99.99
2022-07-27T04:43:10.579Z,99.99
2022-07-27T04:44:10.823Z,99.99
2022-07-27T04:45:10.837Z,99.99
2022-07-27T04:46:17.133Z,99.99
2022-07-27T04:47:10.548Z,99.99
2022-07-27T04:48:10.806Z,99.99
2022-07-27T04:49:11.396Z,99.99
2022-07-27T04:50:10.880Z,99.99
2022-07-27T04:51:11.116Z,99.99
2022-07-27T04:52:10.769Z,99.99
2022-07-27T04:53:10.763Z,99.99
2022-07-27T04:54:10.754Z,99.99
2022-07-27T04:55:10.754Z,99.99
2022-07-27T04:56:10.739Z,99.99
2022-07-27T04:57:10.734Z,99.99
2022-07-27T04:58:10.730Z,99.99
2022-07-27T04:59:11.334Z,99.99
2022-07-27T05:00:10.704Z,99.99
2022-07-27T05:01:10.859Z,99.99
2022-07-27T05:02:10.850Z,99.99
2022-07-27T05:03:10.433Z,99.99
2022-07-27T05:04:10.845Z,99.99
2022-07-27T05:05:10.672Z,99.99
2022-07-27T05:06:10.664Z,99.99
2022-07-27T05:07:10.658Z,99.99
2022-07-27T05:08:10.394Z,99.99
2022-07-27T05:09:11.099Z,99.99
2022-07-27T05:10:10.632Z,99.99
2022-07-27T05:11:10.631Z,99.99
2022-07-27T05:12:10.616Z,99.99
2022-07-27T05:13:10.632Z,99.99
2022-07-27T05:14:10.344Z,99.99
2022-07-27T05:15:10.600Z,99.99
2022-07-27T05:16:10.766Z,99.99
2022-07-27T05:17:10.583Z,99.99
2022-07-27T05:18:10.572Z,99.99
2022-07-27T05:19:10.949Z,99.99
2022-07-27T05:20:10.556Z,99.99
2022-07-27T05:21:10.558Z,99.99
2022-07-27T05:22:10.611Z,99.99
2022-07-27T05:23:10.559Z,99.99
2022-07-27T05:24:10.566Z,99.99
2022-07-27T05:25:10.521Z,99.99
2022-07-27T05:26:10.262Z,99.99
2022-07-27T05:27:10.506Z,99.99
2022-07-27T05:28:10.496Z,99.99
2022-07-27T05:29:10.897Z,99.99
2022-07-27T05:30:10.425Z,99.99
2022-07-27T05:31:10.477Z,99.99
2022-07-27T05:32:10.658Z,99.99
2022-07-27T05:33:10.462Z,99.99
2022-07-27T05:34:10.458Z,99.99
2022-07-27T05:35:10.441Z,99.99
2022-07-27T05:36:10.439Z,99.99
2022-07-27T05:37:10.430Z,99.99
2022-07-27T05:38:10.169Z,99.99
2022-07-27T05:39:16.199Z,99.99
2022-07-27T05:40:10.153Z,99.99
2022-07-27T05:41:10.151Z,99.99
2022-07-27T05:42:10.145Z,99.99
2022-07-27T05:43:10.133Z,99.99
2022-07-27T05:44:10.376Z,99.99
2022-07-27T05:45:10.370Z,99.99
2022-07-27T05:46:10.433Z,99.99
2022-07-27T05:47:13.918Z,99.99
2022-07-27T05:48:10.354Z,99.99
2022-07-27T05:49:10.769Z,99.99
2022-07-27T05:50:10.335Z,99.99
2022-07-27T05:51:10.322Z,99.99
2022-07-27T05:52:10.318Z,99.99
2022-07-27T05:53:10.305Z,99.99
2022-07-27T05:54:10.301Z,99.99
2022-07-27T05:55:10.292Z,99.99
2022-07-27T05:56:10.041Z,99.99
2022-07-27T05:57:10.993Z,99.99
2022-07-27T05:58:10.013Z,99.99
2022-07-27T05:59:10.529Z,99.99
2022-07-27T06:00:10.259Z,99.99
2022-07-27T06:01:10.212Z,99.99
2022-07-27T06:02:10.241Z,99.99
2022-07-27T06:03:10.106Z,99.99
2022-07-27T06:04:10.224Z,99.99
2022-07-27T06:05:17.796Z,99.99
2022-07-27T06:06:10.213Z,99.99
2022-07-27T06:07:09.947Z,99.99
2022-07-27T06:08:10.195Z,99.99
2022-07-27T06:09:10.567Z,99.99
2022-07-27T06:10:11.279Z,99.99
2022-07-27T06:11:10.169Z,99.99
2022-07-27T06:12:09.908Z,99.99
2022-07-27T06:13:10.154Z,99.99
2022-07-27T06:14:10.153Z,99.99
2022-07-27T06:15:10.137Z,99.99
2022-07-27T06:16:10.370Z,99.99
2022-07-27T06:17:09.887Z,99.99
2022-07-27T06:18:10.121Z,99.99
2022-07-27T06:19:10.367Z,99.99
2022-07-27T06:20:09.847Z,99.99
2022-07-27T06:21:10.098Z,99.99
2022-07-27T06:22:10.086Z,99.99
2022-07-27T06:23:10.798Z,99.99
2022-07-27T06:24:09.828Z,99.99
2022-07-27T06:25:10.065Z,99.99
2022-07-27T06:26:10.054Z,99.99
2022-07-27T06:27:10.047Z,99.99
2022-07-27T06:28:09.784Z,99.99
2022-07-27T06:29:13.477Z,99.99
2022-07-27T06:30:10.024Z,99.99
2022-07-27T06:31:11.644Z,99.99
2022-07-27T06:32:10.190Z,99.99
2022-07-27T06:33:10.007Z,99.99
2022-07-27T06:34:14.751Z,99.99
2022-07-27T06:35:09.985Z,99.99
2022-07-27T06:36:09.974Z,99.99
2022-07-27T06:37:09.970Z,99.99
2022-07-27T06:38:09.983Z,99.99
2022-07-27T06:39:10.303Z,99.99
2022-07-27T06:40:09.689Z,99.99
2022-07-27T06:41:09.681Z,99.99
2022-07-27T06:42:09.927Z,99.99
2022-07-27T06:43:09.921Z,99.99
2022-07-27T06:44:09.908Z,99.99
2022-07-27T06:45:09.902Z,99.99
2022-07-27T06:46:09.923Z,99.99
2022-07-27T06:47:10.043Z,99.99
2022-07-27T06:48:09.879Z,99.99
2022-07-27T06:49:10.389Z,99.99
2022-07-27T06:50:09.864Z,99.99
2022-07-27T06:51:09.854Z,99.99
2022-07-27T06:52:09.586Z,99.99
2022-07-27T06:53:09.841Z,99.99
2022-07-27T06:54:09.825Z,99.99
2022-07-27T06:55:09.569Z,99.99
2022-07-27T06:56:09.809Z,99.99
2022-07-27T06:57:10.167Z,99.99
2022-07-27T06:58:09.793Z,99.99
2022-07-27T06:59:10.123Z,99.99
2022-07-27T07:00:09.785Z,99.99
2022-07-27T07:01:09.710Z,99.99
2022-07-27T07:02:09.509Z,99.99
2022-07-27T07:03:09.500Z,99.99
2022-07-27T07:04:09.881Z,99.99
2022-07-27T07:05:09.742Z,99.99
2022-07-27T07:06:09.738Z,99.99
2022-07-27T07:07:09.983Z,99.99
2022-07-27T07:08:09.457Z,99.99
2022-07-27T07:09:11.811Z,99.99
2022-07-27T07:10:09.698Z,99.99
2022-07-27T07:11:09.436Z,99.99
2022-07-27T07:12:09.425Z,99.99
2022-07-27T07:13:09.679Z,99.99
2022-07-27T07:14:09.663Z,99.99
2022-07-27T07:15:09.402Z,99.99
2022-07-27T07:16:09.777Z,99.99
2022-07-27T07:17:09.641Z,99.99
2022-07-27T07:18:09.375Z,99.99
2022-07-27T07:19:09.508Z,99.99
2022-07-27T07:20:09.357Z,99.99
2022-07-27T07:21:09.359Z,99.99
2022-07-27T07:22:09.346Z,99.99
2022-07-27T07:23:09.339Z,99.99
2022-07-27T07:24:09.585Z,99.99
2022-07-27T07:25:09.574Z,99.99
2022-07-27T07:26:09.311Z,99.99
2022-07-27T07:27:09.574Z,99.99
2022-07-27T07:28:09.572Z,99.99
2022-07-27T07:29:09.596Z,99.99
2022-07-27T07:30:09.285Z,99.99
2022-07-27T07:31:09.403Z,99.99
2022-07-27T07:32:09.521Z,99.99
2022-07-27T07:33:09.510Z,99.99
2022-07-27T07:34:09.505Z,99.99
2022-07-27T07:35:09.492Z,99.99
2022-07-27T07:36:16.187Z,99.99
2022-07-27T07:37:09.477Z,99.99
2022-07-27T07:38:09.209Z,99.99
2022-07-27T07:39:09.659Z,99.99
2022-07-27T07:40:44.194Z,99.99
2022-07-27T07:41:09.442Z,99.99
2022-07-27T07:42:13.324Z,99.99
2022-07-27T07:43:09.446Z,99.99
2022-07-27T07:44:09.441Z,99.99
2022-07-27T07:45:09.154Z,99.99
2022-07-27T07:46:09.803Z,99.99
2022-07-27T07:47:09.516Z,99.99
2022-07-27T07:48:09.503Z,99.99
2022-07-27T07:49:09.917Z,99.99
2022-07-27T07:50:09.116Z,99.99
2022-07-27T07:51:09.113Z,99.99
2022-07-27T07:52:09.356Z,99.99
2022-07-27T07:53:09.348Z,99.99
2022-07-27T07:54:09.088Z,99.99
2022-07-27T07:55:09.075Z,99.99
2022-07-27T07:56:09.076Z,99.99
2022-07-27T07:57:09.061Z,99.99
2022-07-27T07:58:09.308Z,99.99
2022-07-27T07:59:09.358Z,99.99
2022-07-27T08:00:09.295Z,99.99
2022-07-27T08:01:09.284Z,99.99
2022-07-27T08:02:09.272Z,99.99
2022-07-27T08:03:09.208Z,99.99
2022-07-27T08:04:09.262Z,99.99
2022-07-27T08:05:09.254Z,99.99
2022-07-27T08:06:09.246Z,99.99
2022-07-27T08:07:09.240Z,99.99
2022-07-27T08:08:08.989Z,99.99
2022-07-27T08:09:09.106Z,99.99
2022-07-27T08:10:09.211Z,99.99
2022-07-27T08:11:08.967Z,99.99
2022-07-27T08:12:09.198Z,99.99
2022-07-27T08:13:09.190Z,99.99
2022-07-27T08:14:09.208Z,99.99
2022-07-27T08:15:09.178Z,99.99
2022-07-27T08:16:09.295Z,99.99
2022-07-27T08:17:08.905Z,99.99
2022-07-27T08:18:09.152Z,99.99
2022-07-27T08:19:12.415Z,99.99
2022-07-27T08:20:08.890Z,99.99
2022-07-27T08:21:09.135Z,99.99
2022-07-27T08:22:09.128Z,99.99
2022-07-27T08:23:09.131Z,99.99
2022-07-27T08:24:08.854Z,99.99
2022-07-27T08:25:09.106Z,99.99
2022-07-27T08:26:10.708Z,99.99
2022-07-27T08:27:08.832Z,99.99
2022-07-27T08:28:10.027Z,99.99
2022-07-27T08:29:16.007Z,99.99
2022-07-27T08:30:10.134Z,99.99
2022-07-27T08:31:20.085Z,99.99
2022-07-27T08:32:08.961Z,99.99
2022-07-27T08:33:08.792Z,99.99
2022-07-27T08:34:08.782Z,99.99
2022-07-27T08:35:09.038Z,99.99
2022-07-27T08:36:09.031Z,99.99
2022-07-27T08:37:13.390Z,99.99
2022-07-27T08:38:09.012Z,97.9
2022-07-27T08:39:09.246Z,97.9
2022-07-27T08:40:50.162Z,97.8
2022-07-27T08:41:48.825Z,97.04
2022-07-27T08:42:51.399Z,97.8
2022-07-27T08:43:49.055Z,97.23
2022-07-27T08:44:49.041Z,94.17
2022-07-27T08:45:48.779Z,92.63
2022-07-27T08:46:48.894Z,93.12
2022-07-27T08:47:49.022Z,93.21
2022-07-27T08:48:48.900Z,93.4
2022-07-27T08:49:51.883Z,92.63
2022-07-27T08:50:48.995Z,92.73
2022-07-27T08:51:49.870Z,92.83
2022-07-27T08:52:48.987Z,92.68
2022-07-27T08:53:55.653Z,92.97
2022-07-27T08:54:48.968Z,91.82
2022-07-27T08:55:48.971Z,91.63
2022-07-27T08:56:48.960Z,91.82
2022-07-27T08:57:48.954Z,91.92
2022-07-27T08:58:48.693Z,91.72
2022-07-27T08:59:48.944Z,91.34
2022-07-27T09:00:48.703Z,91.05
2022-07-27T09:01:49.167Z,89.38
2022-07-27T09:02:49.123Z,88.71
2022-07-27T09:03:49.056Z,88.81
2022-07-27T09:04:48.902Z,89
2022-07-27T09:05:48.646Z,89.09
2022-07-27T09:06:55.909Z,89.48
2022-07-27T09:07:48.883Z,89.19
2022-07-27T09:08:55.388Z,88.62
2022-07-27T09:09:48.874Z,87.51
2022-07-27T09:10:48.869Z,86.65
2022-07-27T09:11:48.869Z,86.46
2022-07-27T09:12:48.598Z,86.17
2022-07-27T09:13:48.903Z,85.21
2022-07-27T09:14:55.066Z,84.35
2022-07-27T09:16:19.918Z,84.26
2022-07-27T09:17:50.122Z,83.59
2022-07-27T09:18:06.711Z,83.59
2022-07-27T09:19:06.822Z,83.97
2022-07-27T09:20:06.557Z,83.11
2022-07-27T09:21:06.806Z,83.59
2022-07-27T09:22:06.541Z,83.39
2022-07-27T09:23:06.537Z,82.82
2022-07-27T09:25:06.782Z,81.77
2022-07-27T09:26:30.273Z,81.2
2022-07-27T09:27:06.534Z,81.34
2022-07-27T09:28:06.501Z,81.63
2022-07-27T09:29:06.499Z,81.82
2022-07-27T09:30:06.498Z,81.15
2022-07-27T09:31:06.835Z,81.73
2022-07-27T09:32:06.477Z,81.73
2022-07-27T09:33:06.732Z,81.34
2022-07-27T09:34:06.740Z,81.05
2022-07-27T09:35:06.738Z,80.96
2022-07-27T09:36:06.984Z,81.34
2022-07-27T09:37:08.080Z,80.87
2022-07-27T09:38:07.040Z,80.29
2022-07-27T09:39:07.013Z,79.81
2022-07-27T09:40:06.971Z,80.1
2022-07-27T09:41:06.957Z,79.81
2022-07-27T09:42:20.294Z,79.05
2022-07-27T09:44:42.900Z,79.05
2022-07-27T09:45:36.063Z,78.8
2022-07-27T09:46:30.802Z,78.99
2022-07-27T09:47:30.679Z,78.93
2022-07-27T09:48:30.950Z,78.84
2022-07-27T09:49:30.911Z,77.5
2022-07-27T09:50:36.161Z,77.4
2022-07-27T09:52:01.856Z,75.23
2022-07-27T09:52:30.671Z,74.66
2022-07-27T09:53:44.968Z,74.18
2022-07-27T09:54:30.629Z,74.69
2022-07-27T09:55:30.877Z,73.74
2022-07-27T09:56:30.872Z,72.91
2022-07-27T09:57:30.615Z,72.53
2022-07-27T09:58:30.604Z,71.86
2022-07-27T09:59:30.856Z,70.99
2022-07-27T10:00:30.857Z,70.99
2022-07-27T10:01:30.999Z,70.51
2022-07-27T10:02:30.957Z,69.97
2022-07-27T10:03:30.835Z,70.45
2022-07-27T10:04:30.955Z,70.55
2022-07-27T10:05:30.821Z,69.78
2022-07-27T10:06:35.800Z,69.01
2022-07-27T10:07:30.555Z,68.63
2022-07-27T10:08:30.551Z,67.29
2022-07-27T10:09:30.814Z,66.16
2022-07-27T10:10:30.539Z,66.23
2022-07-27T10:11:30.793Z,64.92
2022-07-27T10:12:30.783Z,64.43
2022-07-27T10:13:30.526Z,64.43
2022-07-27T10:14:30.774Z,63.57
2022-07-27T10:15:30.644Z,63.76
2022-07-27T10:16:30.954Z,64.82
2022-07-27T10:17:30.769Z,64.56
2022-07-27T10:18:31.091Z,65.23
2022-07-27T10:19:30.760Z,63.12
2022-07-27T10:20:30.747Z,62.64
2022-07-27T10:21:30.485Z,62.26
2022-07-27T10:22:30.752Z,62.93
2022-07-27T10:23:30.480Z,63.32
2022-07-27T10:24:30.475Z,62.58
2022-07-27T10:25:40.032Z,61.58
2022-07-27T10:26:30.718Z,61.11
2022-07-27T10:27:31.757Z,61.01
2022-07-27T10:28:31.736Z,60.75
2022-07-27T10:29:31.736Z,60.82
2022-07-27T10:30:31.469Z,61.87
2022-07-27T10:31:32.042Z,61.68
2022-07-27T10:32:31.738Z,62.07
2022-07-27T10:33:31.714Z,61.97
2022-07-27T10:34:31.716Z,62.87
2022-07-27T10:35:31.709Z,62.38
2022-07-27T10:36:31.752Z,62.1
2022-07-27T10:37:31.440Z,61.97
2022-07-27T10:38:31.689Z,61.68
2022-07-27T10:39:31.691Z,62.07
2022-07-27T10:40:31.429Z,61.2
2022-07-27T10:41:31.685Z,61.3
2022-07-27T10:42:31.682Z,61.97
2022-07-27T10:43:31.414Z,61.81
2022-07-27T10:44:31.410Z,62.1
2022-07-27T10:46:01.235Z,61.33
2022-07-27T10:46:31.504Z,61.33
2022-07-27T10:47:31.651Z,60.85
2022-07-27T10:48:31.418Z,60.85
2022-07-27T10:49:31.779Z,60.46
2022-07-27T10:50:31.642Z,60.72
2022-07-27T10:51:31.635Z,61.58
2022-07-27T10:52:31.633Z,61.3
2022-07-27T10:53:36.208Z,61.01
2022-07-27T10:54:32.609Z,61.11
2022-07-27T10:55:32.614Z,60.66
2022-07-27T10:56:31.619Z,60.53
2022-07-27T10:57:31.352Z,61.52
2022-07-27T10:58:31.607Z,62
2022-07-27T11:00:31.596Z,60.94
2022-07-27T11:01:31.781Z,60.85
2022-07-27T11:02:31.592Z,59.82
2022-07-27T11:03:31.339Z,59.15
2022-07-27T11:04:31.682Z,60.11
2022-07-27T11:06:18.220Z,59.82
2022-07-27T11:08:05.129Z,59.53
2022-07-27T11:10:07.916Z,59.92
2022-07-27T11:11:07.097Z,58.4
2022-07-27T11:12:07.347Z,57.54
2022-07-27T11:13:12.192Z,57.51
2022-07-27T11:14:07.084Z,57.7
2022-07-27T11:15:07.336Z,57.35
2022-07-27T11:16:52.578Z,58.31
2022-07-27T11:18:07.915Z,57.35
2022-07-27T11:19:07.111Z,56.87
2022-07-27T11:20:06.914Z,56.16
2022-07-27T11:21:07.943Z,56.55
2022-07-27T11:22:28.465Z,57.83
2022-07-27T11:23:56.025Z,57.35
2022-07-27T11:24:56.275Z,57.25
2022-07-27T11:25:56.280Z,57.45
2022-07-27T11:26:56.286Z,56.96
2022-07-27T11:27:56.270Z,56.29
2022-07-27T11:28:56.006Z,56
2022-07-27T11:29:56.256Z,56.77
2022-07-27T11:30:56.428Z,56.77
2022-07-27T11:32:00.202Z,56.58
2022-07-27T11:32:56.317Z,57.13
2022-07-27T11:33:55.983Z,57.06
2022-07-27T11:34:56.239Z,56.84
2022-07-27T11:35:56.236Z,56.36
2022-07-27T11:36:56.236Z,56.45
2022-07-27T11:37:55.973Z,56.77
2022-07-27T11:38:56.228Z,57.7
2022-07-27T11:40:28.137Z,61
2022-07-27T11:42:23.697Z,59.08
2022-07-27T11:43:18.116Z,57.35
2022-07-27T11:44:18.001Z,57.15
2022-07-27T11:45:15.266Z,56.36
2022-07-27T11:46:15.613Z,56.84
2022-07-27T11:47:15.253Z,57.03
2022-07-27T11:48:15.826Z,57.22
2022-07-27T11:49:15.710Z,57.51
2022-07-27T11:50:15.376Z,58.09
2022-07-27T11:51:15.331Z,57.32
2022-07-27T11:52:15.492Z,58.57
2022-07-27T11:53:15.491Z,58.09
2022-07-27T11:54:15.488Z,57.8
2022-07-27T11:55:15.847Z,57.45
2022-07-27T11:56:15.217Z,57.45
2022-07-27T11:57:15.229Z,56.36
2022-07-27T11:58:15.213Z,56.16
2022-07-27T11:59:16.835Z,56.93
2022-07-27T12:00:15.467Z,57.32
2022-07-27T12:01:15.508Z,57.22
2022-07-27T12:02:15.276Z,57.03
2022-07-27T12:03:15.456Z,57.32
2022-07-27T12:04:15.202Z,59.47
2022-07-27T12:05:15.353Z,58.7
2022-07-27T12:06:15.441Z,58.4
2022-07-27T12:07:18.190Z,56.96
2022-07-27T12:08:15.173Z,56.96
2022-07-27T12:09:16.367Z,56.7
2022-07-27T12:10:15.425Z,55.45
2022-07-27T12:11:15.165Z,55.65
2022-07-27T12:12:15.417Z,55.43
2022-07-27T12:13:15.418Z,55.43
2022-07-27T12:14:15.413Z,55.81
2022-07-27T12:15:47.004Z,56.51
2022-07-27T12:16:20.802Z,56.03
2022-07-27T12:17:15.254Z,55.35
2022-07-27T12:18:15.141Z,54.78
2022-07-27T12:19:16.236Z,54.68
2022-07-27T12:20:15.316Z,54.3
2022-07-27T12:21:15.385Z,54.1
2022-07-27T12:22:15.383Z,54.39
2022-07-27T12:23:15.127Z,53.55
2022-07-27T12:24:15.375Z,54.13
2022-07-27T12:25:19.120Z,53.55
2022-07-27T12:26:15.376Z,53.84
2022-07-27T12:27:15.370Z,53.94
2022-07-27T12:28:15.421Z,53.72
2022-07-27T12:29:16.081Z,53.62
2022-07-27T12:30:15.366Z,53.62
2022-07-27T12:31:15.529Z,53.81
2022-07-27T12:32:15.355Z,54.39
2022-07-27T12:33:15.096Z,54.78
2022-07-27T12:34:15.353Z,55.52
2022-07-27T12:35:15.089Z,55.55
2022-07-27T12:36:15.341Z,55.16
2022-07-27T12:37:15.334Z,54.85
2022-07-27T12:38:15.340Z,54.56
2022-07-27T12:39:16.111Z,54.08
2022-07-27T12:40:16.001Z,54.36
2022-07-27T12:41:15.076Z,54.17
2022-07-27T12:42:15.331Z,54.36
2022-07-27T12:43:15.321Z,54.08
2022-07-27T12:44:15.319Z,55.81
2022-07-27T12:45:15.081Z,56.51
2022-07-27T12:46:15.806Z,55.19
2022-07-27T12:47:15.307Z,55.38
2022-07-27T12:48:15.309Z,55.31
2022-07-27T12:49:15.971Z,54.54
2022-07-27T12:50:15.304Z,54.57
2022-07-27T12:51:15.294Z,53.51
2022-07-27T12:52:15.298Z,51.03
2022-07-27T12:53:15.291Z,49.58
2022-07-27T12:54:15.030Z,49.37
2022-07-27T12:55:18.261Z,49.84
2022-07-27T12:56:15.033Z,50.49
2022-07-27T12:57:24.380Z,50.27
2022-07-27T12:58:15.314Z,50.66
2022-07-27T12:59:16.147Z,51.24
2022-07-27T13:00:15.831Z,51.79
2022-07-27T13:01:17.140Z,52.56
2022-07-27T13:02:15.945Z,52.83
2022-07-27T13:03:15.822Z,53.5
2022-07-27T13:04:15.821Z,53.4
2022-07-27T13:05:16.163Z,53.53
2022-07-27T13:06:15.810Z,53.91
2022-07-27T13:07:16.503Z,53.05
2022-07-27T13:08:19.067Z,52.59
2022-07-27T13:09:16.513Z,52.11
2022-07-27T13:10:15.805Z,52.2
2022-07-27T13:11:16.273Z,52.69
2022-07-27T13:12:15.794Z,52.78
2022-07-27T13:13:15.790Z,52.78
2022-07-27T13:14:15.809Z,52.59
2022-07-27T13:15:15.535Z,52.59
2022-07-27T13:16:15.937Z,52.78
2022-07-27T13:17:15.777Z,52.69
2022-07-27T13:18:18.702Z,52.11
2022-07-27T13:19:16.495Z,52.59
2022-07-27T13:20:15.781Z,52.56